Home   Weather   Afghanistan   Balkh   Past weeks
Flag for Afghanistan

Past Weather in Balkh, Afghanistan — Yesterday and Last 2 Weeks

Currently: 68 °F. Sunny. (Weather station: Termez Airport, Afghanistan). See more current weather

Past Weather in Balkh — Graph

°F

Balkh Temperature Yesterday

Maximum temperature yesterday: 91 °F (at 2:30 pm)
Minimum temperature yesterday: 63 °F (at 5:00 am)
Average temperature yesterday: 79 °F

High & Low Weather Summary for the Past Weeks

 TemperatureHumidityPressure
High102 °F (May 8, 3:00 pm)94% (May 5, 5:30 am)30.04 "Hg (May 5, 5:30 am)
Low61 °F (May 5, 5:30 am)11% (May 8, 3:00 pm)29.53 "Hg (May 2, 3:30 pm)
Average78 °F45%29.84 "Hg
* Reported May 2 5:30 am — May 17 5:30 am, Balkh. Weather by CustomWeather, © 2022

Note: Actual official high and low records may vary slightly from our data, if they occured in-between our weather recording intervals... More about our weather records

Balkh Weather History for the Previous 24 Hours

Scroll right to see more
 ConditionsComfort  
Time TempWeatherWind HumidityBarometerVisibility
5:30 am
Tue, May 17
64 °FSunny.No wind68%29.74 "Hg10 mi
5:00 am61 °FSunny.2 mph77%29.74 "Hg10 mi
4:30 am63 °FClear.2 mph73%29.71 "Hg10 mi
4:00 am66 °FClear.2 mph64%29.71 "Hg10 mi
3:30 am66 °FClear.5 mph64%29.71 "Hg10 mi
3:00 am66 °FClear.5 mph64%29.71 "Hg10 mi
2:30 am68 °FClear.No wind64%29.71 "Hg10 mi
1:30 am72 °FClear.2 mph53%29.71 "Hg10 mi
1:00 am72 °FClear.No wind53%29.71 "Hg10 mi
12:00 am72 °FClear.No wind50%29.74 "Hg10 mi
11:30 pm
Mon, May 16
72 °FClear.2 mph53%29.74 "Hg10 mi
11:00 pm73 °FClear.5 mph50%29.74 "Hg10 mi
10:30 pm73 °FClear.2 mph47%29.74 "Hg10 mi
10:00 pm75 °FClear.5 mph44%29.77 "Hg10 mi
9:30 pm77 °FClear.2 mph39%29.77 "Hg10 mi
9:00 pm77 °FClear.2 mph36%29.77 "Hg10 mi
8:30 pm79 °FClear.No wind34%29.74 "Hg10 mi
8:00 pm81 °FClear.5 mph32%29.74 "Hg10 mi
7:30 pm82 °FClear.5 mph28%29.74 "Hg10 mi
6:30 pm86 °FSunny.7 mph25%29.74 "Hg10 mi
6:00 pm90 °FSunny.7 mph22%29.74 "Hg10 mi
5:30 pm90 °FSunny.2 mph21%29.74 "Hg10 mi
5:00 pm91 °FSunny.5 mph23%29.74 "Hg10 mi
4:30 pm91 °FPassing clouds.7 mph21%29.77 "HgN/A
4:00 pm91 °FPassing clouds.5 mph20%29.77 "HgN/A
3:30 pm91 °FPassing clouds.5 mph20%29.77 "HgN/A
3:00 pm91 °FSunny.5 mph21%29.80 "Hg10 mi
2:30 pm91 °FPassing clouds.5 mph23%29.80 "HgN/A
2:00 pm90 °FSunny.5 mph22%29.83 "Hg10 mi
1:30 pm90 °FSunny.7 mph24%29.86 "Hg10 mi
1:00 pm90 °FSunny.5 mph22%29.86 "Hg10 mi
12:30 pm90 °FSunny.5 mph24%29.89 "Hg10 mi
11:30 am86 °FPassing clouds.5 mph27%29.89 "HgN/A
11:00 am86 °FSunny.2 mph25%29.92 "Hg10 mi
10:30 am86 °FSunny.2 mph27%29.92 "Hg10 mi
10:00 am84 °FPassing clouds.5 mph31%29.95 "HgN/A
9:30 am82 °FSunny.5 mph32%29.95 "Hg10 mi
9:00 am81 °FPassing clouds.5 mph39%29.95 "HgN/A
8:30 am79 °FSunny.2 mph42%29.95 "Hg10 mi
8:00 am77 °FSunny.2 mph47%29.95 "Hg10 mi
7:30 am75 °FSunny.No wind47%29.95 "Hg10 mi
7:00 am73 °FSunny.No wind50%29.95 "Hg10 mi
6:30 am68 °FSunny.2 mph64%29.95 "Hg10 mi
6:00 am66 °FSunny.No wind68%29.92 "Hg10 mi
Weather by CustomWeather, © 2022

See weather overview